メインページ
METAR-TAF:

METAR-TAF

空港 :

ダブリン, アイルランド

ダブリン空港

緯度: 53-26N, 経度: 006-15W, 海抜: 68m

現時点の気象観測

当レポートは31分前の11:30(UTC)に作成
変向風 3kt
気温 12°C
湿度 71%
気圧 1027 hPa
視程10km以上
高度1800ftの雲はほとんどない
高度2500ftの雲は散在している
高度3400ftの千切れ雲あり

METAR: EIDW 231130Z VRB03KT 9999 FEW018 SCT025 BKN034 12/07 Q1027 NOSIG

時間: 13:01 (12:01 UTC)

予報

当レポートは1時間1分前の11:00(UTC)に作成
予報は23日の 12時(UTC)から 24日の 12時(UTC)まで有効
変向風 3kt
視程10km以上
高度1800ftの雲は散在している
高度4000ftの千切れ雲あり
23日の 13時(UTC)から 23日の 16時(UTC)まで徐々に
西/南西の風 5kt
23日の 16時(UTC)から 23日の 19時(UTC)まで徐々に
西の風 8kt
24日の 01時(UTC)から 24日の 04時(UTC)まで徐々に
西/北西の風 13kt
確率 40% :
24日の 03時(UTC)から 24日の 09時(UTC)まで一時的に
視程: 6000m
高度1200ftの千切れ雲あり
小雨
24日の 09時(UTC)から 24日の 12時(UTC)まで徐々に
北西の風 14kt
24日の 09時(UTC)から 24日の 12時(UTC)まで一時的に
視程: 6000m
高度1200ftの千切れ雲あり
小雨

TAF: EIDW 231100Z 2312/2412 VRB03KT 9999 SCT018 BKN040 BECMG 2313/2316 24005KT BECMG 2316/2319 28008KT BECMG 2401/2404 29013KT PROB40 TEMPO 2403/2409 6000 -RA BKN012 BECMG 2409/2412 32014KT TEMPO 2409/2412 6000 -RA BKN012

4,000以上の空港の気象観測と天気予報(METAR報とTAF報)

利用可能な観測所は地図上に黄色い丸と赤い丸で示す。

丸の上にカーソルを重ねると観測所名を参照できる。

次にクリックすると気象観測と天気予報を参照できる。

マップの切り替え:黒色「×」印の緑ボタンをクリックして拡大、「-」印の緑ボタンをクリックして縮小、緑色の三角印をクリックして隣りの地図に切り替え


METAR-TAF: